Time;durP1;ratioP1;P1;durP2;ratioP2;P2;SDS_P1;SDS_P2;PMS_P1;PMS_P2;Temp;Humidity;BMP_temperature;BMP_pressure;BME280_temperature;BME280_humidity;BME280_pressure;Samples;Min_cycle;Max_cycle;Signal;HPM_P1;HPM_P2
2022/03/21 05:47:09;;;;;;;18.10;11.63;;;6.10;95.20;;;;;;6103982;23;20695;-86
2022/03/21 05:49:38;;;;;;;19.20;11.55;;;6.20;95.30;;;;;;6110304;23;20175;-88
2022/03/21 05:52:11;;;;;;;19.67;11.07;;;6.30;94.90;;;;;;6115256;23;20197;-86
2022/03/21 05:54:41;;;;;;;16.02;10.93;;;6.20;94.70;;;;;;6116358;23;20676;-84
2022/03/21 05:57:08;;;;;;;16.55;11.93;;;6.20;94.60;;;;;;6108849;23;20187;-86
2022/03/21 06:02:22;;;;;;;16.08;10.63;;;6.20;94.60;;;;;;6107585;23;20508;-88
2022/03/21 06:04:51;;;;;;;16.50;11.43;;;5.80;94.20;;;;;;6105718;23;20177;-87
2022/03/21 06:07:26;;;;;;;17.30;10.85;;;6.30;94.60;;;;;;6108749;23;20181;-86
2022/03/21 06:10:01;;;;;;;17.70;11.48;;;6.40;94.30;;;;;;6122468;23;20168;-87
2022/03/21 06:12:37;;;;;;;13.73;10.52;;;6.40;94.00;;;;;;6113897;23;20185;-86
2022/03/21 06:15:16;;;;;;;17.80;11.38;;;6.50;93.70;;;;;;6110513;23;20247;-86
2022/03/21 06:18:01;;;;;;;18.88;11.30;;;6.50;93.70;;;;;;6120203;23;20188;-86
2022/03/21 06:20:41;;;;;;;17.92;10.90;;;6.50;93.40;;;;;;6120431;23;20173;-87
2022/03/21 06:23:10;;;;;;;20.63;11.68;;;6.70;93.30;;;;;;6122792;23;20157;-87
2022/03/21 06:25:40;;;;;;;16.52;10.55;;;6.80;93.00;;;;;;6117251;23;20269;-88
2022/03/21 06:28:10;;;;;;;18.88;12.18;;;6.80;92.80;;;;;;6110948;23;20180;-87
2022/03/21 06:34:00;;;;;;;20.67;11.70;;;6.90;92.90;;;;;;6098257;23;20516;-86
2022/03/21 06:36:28;;;;;;;23.92;11.77;;;6.90;92.80;;;;;;6105430;23;20220;-86
2022/03/21 06:38:55;;;;;;;21.15;11.82;;;6.90;93.00;;;;;;6105487;23;20189;-86
2022/03/21 06:41:22;;;;;;;16.45;12.40;;;7.00;93.00;;;;;;6104860;23;20240;-86
2022/03/21 06:43:54;;;;;;;18.92;12.25;;;7.00;92.80;;;;;;6107939;23;20223;-87
2022/03/21 06:46:21;;;;;;;20.63;12.85;;;7.10;92.60;;;;;;6107995;23;20229;-87
2022/03/21 06:48:53;;;;;;;18.20;11.20;;;7.10;92.50;;;;;;6110528;23;20528;-87
2022/03/21 06:51:35;;;;;;;15.68;11.90;;;7.20;92.10;;;;;;6114785;23;20217;-86
2022/03/21 06:54:10;;;;;;;21.92;12.52;;;7.50;91.90;;;;;;6117764;23;20176;-88
2022/03/21 07:02:57;;;;;;;17.05;11.05;;;7.70;90.90;;;;;;6023319;23;20244;-87
2022/03/21 07:05:28;;;;;;;23.83;11.75;;;7.60;90.70;;;;;;6109222;23;20200;-87
2022/03/21 07:08:00;;;;;;;17.92;12.00;;;7.60;90.70;;;;;;6107978;23;20244;-87
2022/03/21 07:10:29;;;;;;;18.65;12.50;;;7.70;90.90;;;;;;6108132;23;20177;-87
2022/03/21 07:12:56;;;;;;;19.52;12.65;;;7.70;90.70;;;;;;6107976;23;20251;-86
2022/03/21 07:15:23;;;;;;;17.50;11.23;;;7.70;90.70;;;;;;6108171;23;20201;-85
2022/03/21 07:17:51;;;;;;;18.88;13.13;;;7.80;90.50;;;;;;6108942;23;20227;-87
2022/03/21 07:20:20;;;;;;;18.60;12.57;;;7.90;90.80;;;;;;6109059;23;20192;-87
2022/03/21 07:22:48;;;;;;;25.27;13.45;;;7.90;90.70;;;;;;6109276;23;20177;-87
2022/03/21 07:25:17;;;;;;;21.80;13.20;;;8.00;90.50;;;;;;6109112;23;20283;-87
2022/03/21 07:27:54;;;;;;;21.08;13.95;;;8.10;90.50;;;;;;6109149;23;20176;-88
2022/03/21 07:30:22;;;;;;;18.45;14.15;;;8.00;90.50;;;;;;6112488;23;20608;-87
2022/03/21 07:32:55;;;;;;;24.50;12.85;;;8.20;90.40;;;;;;6111191;23;20193;-86
2022/03/21 07:35:22;;;;;;;22.55;12.90;;;8.20;90.20;;;;;;6111958;23;20212;-88
2022/03/21 07:37:54;;;;;;;23.17;12.70;;;8.30;89.90;;;;;;6109813;23;20228;-87
2022/03/21 07:40:28;;;;;;;20.73;12.07;;;8.30;89.60;;;;;;6109205;23;20655;-87
2022/03/21 07:43:17;;;;;;;22.87;14.10;;;8.40;89.10;;;;;;6110518;23;20408;-87
2022/03/21 07:48:47;;;;;;;17.13;13.02;;;8.60;88.20;;;;;;6110340;23;20185;-88
2022/03/21 07:51:17;;;;;;;18.58;13.15;;;8.70;86.80;;;;;;6111725;23;20216;-87
2022/03/21 07:53:44;;;;;;;22.45;15.02;;;8.80;86.20;;;;;;6110465;23;20181;-87
2022/03/21 07:56:53;;;;;;;19.33;14.10;;;8.90;85.70;;;;;;6109418;23;20205;-87
2022/03/21 07:59:37;;;;;;;21.93;13.00;;;9.00;84.60;;;;;;6104291;23;20480;-86
2022/03/21 08:02:07;;;;;;;16.33;12.20;;;9.00;84.30;;;;;;6107795;23;20437;-88
2022/03/21 08:04:36;;;;;;;23.50;14.93;;;9.10;84.40;;;;;;6108582;23;20420;-88
2022/03/21 08:07:03;;;;;;;20.60;13.48;;;9.20;84.10;;;;;;6109860;23;20420;-88
2022/03/21 08:09:33;;;;;;;19.63;14.00;;;9.10;83.70;;;;;;6108743;23;20185;-88
2022/03/21 08:12:02;;;;;;;28.45;17.67;;;9.20;83.70;;;;;;6108152;23;20472;-88
2022/03/21 08:14:35;;;;;;;19.30;13.40;;;9.40;83.00;;;;;;6108158;23;20185;-88
2022/03/21 08:17:04;;;;;;;19.50;13.90;;;9.50;82.40;;;;;;6108630;23;20409;-87
2022/03/21 08:19:35;;;;;;;19.63;14.10;;;9.50;81.90;;;;;;6120337;23;20241;-88
2022/03/21 08:22:11;;;;;;;23.00;15.00;;;9.70;82.20;;;;;;6111821;23;20417;-88
2022/03/21 08:24:38;;;;;;;22.50;15.13;;;9.80;82.00;;;;;;6119558;23;20477;-87
2022/03/21 08:27:17;;;;;;;23.30;14.30;;;10.10;79.70;;;;;;6115855;23;20445;-88
2022/03/21 08:29:46;;;;;;;20.57;14.00;;;10.10;79.40;;;;;;6107576;23;20962;-88
2022/03/21 08:32:40;;;;;;;19.87;12.83;;;10.20;78.90;;;;;;6104790;23;20448;-88
2022/03/21 08:35:21;;;;;;;17.60;13.37;;;10.20;78.40;;;;;;6108660;23;20444;-86
2022/03/21 08:37:59;;;;;;;26.80;15.63;;;10.40;78.20;;;;;;6108346;23;20419;-87
2022/03/21 08:40:29;;;;;;;20.37;13.83;;;10.50;78.10;;;;;;6107769;23;20845;-87
2022/03/21 08:43:18;;;;;;;17.30;12.77;;;10.70;78.10;;;;;;6112345;23;20429;-86
2022/03/21 08:45:47;;;;;;;16.93;13.10;;;10.90;77.20;;;;;;6106653;23;20947;-86
2022/03/21 08:48:18;;;;;;;20.53;13.83;;;11.00;77.10;;;;;;6119908;23;20417;-87
2022/03/21 08:50:55;;;;;;;18.17;13.00;;;11.10;77.30;;;;;;6122210;23;20405;-87
2022/03/21 08:53:29;;;;;;;21.30;12.63;;;11.20;77.10;;;;;;6115897;23;20447;-87
2022/03/21 08:56:12;;;;;;;23.13;14.57;;;11.30;76.90;;;;;;6109926;23;20400;-87
2022/03/21 08:59:12;;;;;;;22.10;13.30;;;11.30;76.60;;;;;;6110369;23;20420;-87
2022/03/21 09:01:52;;;;;;;21.33;13.40;;;11.60;76.70;;;;;;6107676;23;20496;-87
2022/03/21 09:08:18;;;;;;;;;;;;;;;;;;;;;
2022/03/21 09:10:54;;;;;;;23.90;14.80;;;12.00;74.80;;;;;;6033166;23;20465;-85
2022/03/21 09:14:12;;;;;;;20.70;14.27;;;12.20;73.90;;;;;;6121365;23;20411;-88
2022/03/21 09:16:43;;;;;;;20.07;13.67;;;12.20;73.20;;;;;;6078977;23;20754;-86
2022/03/21 09:19:31;;;;;;;19.90;14.90;;;12.30;73.60;;;;;;6116925;23;20417;-87
2022/03/21 09:22:00;;;;;;;19.93;13.60;;;12.50;73.30;;;;;;6103564;23;20453;-86
2022/03/21 09:24:28;;;;;;;19.93;13.83;;;12.40;72.10;;;;;;6113762;23;20425;-86
2022/03/21 09:26:55;;;;;;;20.50;13.93;;;12.40;72.20;;;;;;6111328;23;20425;-86
2022/03/21 09:29:43;;;;;;;26.43;15.27;;;12.40;72.30;;;;;;6107169;23;20421;-86
2022/03/21 09:32:17;;;;;;;21.00;13.80;;;12.30;71.40;;;;;;6107930;23;20483;-87
2022/03/21 09:57:06;;;;;;;30.80;22.47;;;13.00;68.10;;;;;;6059591;23;20432;-87
2022/03/21 09:59:33;;;;;;;28.23;16.27;;;13.10;68.00;;;;;;6105811;23;20408;-86
2022/03/21 10:02:10;;;;;;;39.10;28.47;;;13.20;68.30;;;;;;6107675;23;20453;-86
2022/03/21 10:05:07;;;;;;;26.97;15.37;;;13.30;67.70;;;;;;6107326;23;20398;-88
2022/03/21 10:10:29;;;;;;;33.57;22.50;;;13.30;67.00;;;;;;6103856;23;20899;-87
2022/03/21 10:16:09;;;;;;;20.57;15.63;;;13.20;67.20;;;;;;6104719;23;20444;-86
2022/03/21 10:18:38;;;;;;;16.90;12.87;;;13.30;67.40;;;;;;6106975;23;20391;-87
2022/03/21 10:21:15;;;;;;;20.60;14.60;;;13.40;67.10;;;;;;6109623;23;20459;-87
2022/03/21 10:24:07;;;;;;;19.37;12.70;;;13.40;66.80;;;;;;6112856;23;20472;-86
2022/03/21 10:26:42;;;;;;;19.97;14.83;;;13.50;66.50;;;;;;6109125;23;20475;-86
2022/03/21 10:29:17;;;;;;;19.07;14.40;;;13.60;66.60;;;;;;6110013;23;20871;-86
2022/03/21 10:31:46;;;;;;;21.43;14.97;;;13.70;66.10;;;;;;6110317;23;20392;-87
2022/03/21 10:34:34;;;;;;;18.30;14.40;;;13.70;66.40;;;;;;6109103;23;20432;-88
2022/03/21 10:37:20;;;;;;;23.07;13.93;;;13.90;66.10;;;;;;6114075;23;20379;-87
2022/03/21 10:40:20;;;;;;;20.47;14.43;;;14.00;65.40;;;;;;6117632;23;20391;-88
2022/03/21 10:43:03;;;;;;;23.13;15.30;;;14.00;65.00;;;;;;6114980;23;20416;-88
2022/03/21 10:46:01;;;;;;;23.70;15.63;;;14.10;64.90;;;;;;6122353;23;20579;-88
2022/03/21 10:48:35;;;;;;;21.93;15.93;;;14.20;65.10;;;;;;6024398;23;20398;-87
2022/03/21 10:51:19;;;;;;;21.23;16.30;;;14.30;65.10;;;;;;6036833;23;20387;-87
2022/03/21 10:53:49;;;;;;;21.67;15.40;;;14.50;65.00;;;;;;6109871;23;20783;-88
2022/03/21 10:59:45;;;;;;;22.00;16.40;;;14.70;64.10;;;;;;6020051;23;20503;-88
2022/03/21 11:02:30;;;;;;;21.57;16.77;;;14.90;62.90;;;;;;6098780;23;20383;-88
2022/03/21 11:05:06;;;;;;;23.70;14.53;;;14.90;61.90;;;;;;6108602;23;20418;-88
2022/03/21 11:07:39;;;;;;;22.93;16.87;;;14.80;61.10;;;;;;6106797;23;20451;-88
2022/03/21 11:10:21;;;;;;;24.07;16.47;;;14.70;61.50;;;;;;6106037;23;20379;-88
2022/03/21 11:12:54;;;;;;;22.97;15.50;;;14.70;61.80;;;;;;6109697;23;20423;-86
2022/03/21 11:15:28;;;;;;;17.57;12.80;;;14.70;60.90;;;;;;6107914;23;20441;-89
2022/03/21 11:18:23;;;;;;;24.33;16.93;;;14.60;60.40;;;;;;6108142;23;20399;-87
2022/03/21 11:24:09;;;;;;;20.20;14.07;;;14.60;60.20;;;;;;6085758;23;20431;-88
2022/03/21 11:30:38;;;;;;;21.97;16.90;;;14.60;59.80;;;;;;6090658;23;20413;-89
2022/03/21 11:36:53;;;;;;;24.57;18.13;;;15.00;59.90;;;;;;6058160;23;20404;-86
2022/03/21 11:39:22;;;;;;;22.87;17.03;;;15.10;59.90;;;;;;6089278;23;20413;-87
2022/03/21 11:47:49;;;;;;;23.17;17.30;;;15.40;59.30;;;;;;6108448;23;20431;-89
2022/03/21 11:50:47;;;;;;;23.87;17.00;;;15.40;59.00;;;;;;6110943;23;20410;-88
2022/03/21 11:53:49;;;;;;;24.93;16.90;;;15.50;58.90;;;;;;6098291;23;20456;-87
2022/03/21 11:57:05;;;;;;;20.50;15.23;;;15.60;58.80;;;;;;6105001;23;20436;-88
2022/03/21 12:00:16;;;;;;;21.23;15.67;;;15.30;58.30;;;;;;6105769;23;20392;-88
2022/03/21 12:03:02;;;;;;;23.30;16.60;;;15.10;58.60;;;;;;6117386;23;20383;-88
2022/03/21 12:06:00;;;;;;;24.90;16.80;;;15.20;58.40;;;;;;6122062;23;20920;-87
2022/03/21 12:09:03;;;;;;;20.10;15.20;;;15.30;58.20;;;;;;6119872;23;20418;-88
2022/03/21 12:12:12;;;;;;;24.40;17.00;;;15.40;57.70;;;;;;6119363;23;20404;-87
2022/03/21 12:14:50;;;;;;;21.73;15.33;;;15.50;57.40;;;;;;6112756;23;20431;-88
2022/03/21 12:17:43;;;;;;;20.13;14.80;;;15.50;57.10;;;;;;6108859;23;20393;-88
2022/03/21 12:20:18;;;;;;;19.57;14.77;;;15.60;56.90;;;;;;6116671;23;20441;-88
2022/03/21 12:23:00;;;;;;;24.73;15.60;;;15.60;56.60;;;;;;6114140;23;20864;-88
2022/03/21 12:25:49;;;;;;;20.60;14.97;;;15.60;56.30;;;;;;6113861;23;20441;-89
2022/03/21 12:28:26;;;;;;;20.33;15.67;;;15.60;56.20;;;;;;6109300;23;20375;-88
2022/03/21 12:34:59;;;;;;;19.80;13.97;;;15.50;55.60;;;;;;6104600;23;20437;-88
2022/03/21 12:37:49;;;;;;;20.77;14.90;;;15.50;55.90;;;;;;6106368;23;20475;-87
2022/03/21 12:40:19;;;;;;;23.13;14.97;;;15.70;56.20;;;;;;6105595;23;20428;-87
2022/03/21 12:42:54;;;;;;;20.07;14.37;;;15.80;55.60;;;;;;6105964;23;20405;-88
2022/03/21 12:51:16;;;;;;;18.47;13.90;;;15.90;54.80;;;;;;6076728;23;20424;-87
2022/03/21 12:54:02;;;;;;;19.17;13.90;;;15.80;55.10;;;;;;6106340;23;20766;-88
2022/03/21 12:56:35;;;;;;;30.43;13.67;;;15.80;54.80;;;;;;6107858;23;20475;-88
2022/03/21 12:59:17;;;;;;;20.23;11.83;;;15.70;54.70;;;;;;6108295;23;20378;-87
2022/03/21 13:01:55;;;;;;;17.13;13.57;;;15.70;54.40;;;;;;6106068;23;20744;-89
2022/03/21 13:10:34;;;;;;;22.27;12.83;;;15.90;54.30;;;;;;6106186;23;20456;-88
2022/03/21 13:13:12;;;;;;;14.80;10.70;;;16.00;53.00;;;;;;6106109;23;20897;-87
2022/03/21 13:15:43;;;;;;;19.60;11.93;;;16.00;52.50;;;;;;6106957;23;20477;-89
2022/03/21 13:18:18;;;;;;;18.30;11.20;;;15.90;52.10;;;;;;6105523;23;20422;-87
2022/03/21 13:20:47;;;;;;;20.83;11.80;;;16.00;52.00;;;;;;6116088;23;20405;-90
2022/03/21 13:23:18;;;;;;;18.00;11.13;;;16.00;52.00;;;;;;6117608;23;20403;-88
2022/03/21 13:25:48;;;;;;;17.10;11.43;;;16.20;52.20;;;;;;6117651;23;20421;-89
2022/03/21 13:28:31;;;;;;;16.13;10.10;;;16.30;51.40;;;;;;6107724;23;20425;-87
2022/03/21 13:31:01;;;;;;;18.13;11.50;;;16.40;51.70;;;;;;6107301;23;20413;-87
2022/03/21 13:33:42;;;;;;;16.70;12.10;;;16.50;51.90;;;;;;6106944;23;20423;-88
2022/03/21 13:36:21;;;;;;;18.07;12.50;;;16.60;52.40;;;;;;6105683;23;20423;-88
2022/03/21 13:38:49;;;;;;;19.47;12.47;;;16.60;52.20;;;;;;6106057;23;20387;-88
2022/03/21 13:41:20;;;;;;;16.70;11.30;;;16.70;52.50;;;;;;6104851;23;20462;-87
2022/03/21 13:44:06;;;;;;;21.50;12.97;;;16.80;52.00;;;;;;6106329;23;20453;-88
2022/03/21 13:46:34;;;;;;;21.20;13.00;;;16.80;52.20;;;;;;6105361;23;20426;-87
2022/03/21 13:49:01;;;;;;;19.70;11.37;;;17.00;51.80;;;;;;6106990;23;20410;-87
2022/03/21 13:51:31;;;;;;;16.80;9.20;;;17.00;51.40;;;;;;6120736;23;20426;-89
2022/03/21 13:54:12;;;;;;;20.83;10.97;;;16.80;51.50;;;;;;6112966;23;21002;-88
2022/03/21 13:56:46;;;;;;;18.10;12.07;;;16.80;51.20;;;;;;6109742;23;20455;-88
2022/03/21 13:59:42;;;;;;;20.17;11.50;;;16.70;51.40;;;;;;6108183;23;20726;-86
2022/03/21 14:02:33;;;;;;;24.83;12.20;;;16.70;51.60;;;;;;6106527;23;20932;-89
2022/03/21 14:05:30;;;;;;;18.00;11.27;;;16.80;51.80;;;;;;6105665;23;20441;-89
2022/03/21 14:08:14;;;;;;;17.90;10.90;;;16.80;51.40;;;;;;6106859;23;20380;-87
2022/03/21 14:10:56;;;;;;;15.03;11.10;;;16.90;51.50;;;;;;6107711;23;20451;-89
2022/03/21 14:13:28;;;;;;;18.40;11.07;;;17.10;51.50;;;;;;6105911;23;20478;-89
2022/03/21 14:15:58;;;;;;;17.50;11.20;;;17.10;52.10;;;;;;6106523;23;20685;-86
2022/03/21 14:18:29;;;;;;;18.23;12.80;;;17.10;51.30;;;;;;6107607;23;20427;-87
2022/03/21 14:23:42;;;;;;;19.00;12.27;;;17.30;51.10;;;;;;6103229;23;20392;-87
2022/03/21 14:29:06;;;;;;;19.53;10.87;;;17.10;51.00;;;;;;6108734;23;20400;-87
2022/03/21 14:31:52;;;;;;;16.63;10.23;;;17.00;51.20;;;;;;6110775;23;20399;-89
2022/03/21 14:34:26;;;;;;;19.73;12.03;;;17.00;51.90;;;;;;6116168;23;20420;-87
2022/03/21 14:36:54;;;;;;;18.50;12.90;;;17.00;51.90;;;;;;6118070;23;20511;-88
2022/03/21 14:39:30;;;;;;;18.00;13.13;;;17.00;52.10;;;;;;6112666;23;20391;-88
2022/03/21 14:42:04;;;;;;;21.00;11.87;;;16.90;52.40;;;;;;6112076;23;20391;-89
2022/03/21 14:44:40;;;;;;;16.70;11.27;;;16.90;52.00;;;;;;6111007;23;20830;-88
2022/03/21 14:50:21;;;;;;;16.83;10.73;;;17.20;51.80;;;;;;6082391;23;20391;-89
2022/03/21 15:03:19;;;;;;;18.07;11.50;;;17.10;52.30;;;;;;5975502;24;20466;-88
2022/03/21 15:13:41;;;;;;;21.50;13.07;;;17.10;52.60;;;;;;5930553;24;20375;-87
2022/03/21 15:17:23;;;;;;;21.57;13.90;;;17.20;52.90;;;;;;5964950;24;20569;-87
2022/03/21 15:30:41;;;;;;;22.97;13.33;;;17.40;53.70;;;;;;6017967;23;20404;-88
2022/03/21 15:53:08;;;;;;;21.60;13.30;;;17.00;54.50;;;;;;6105530;23;20448;-88
2022/03/21 15:55:49;;;;;;;17.83;12.60;;;17.00;54.70;;;;;;6093139;23;20400;-88
2022/03/21 15:58:46;;;;;;;19.73;12.63;;;17.00;55.00;;;;;;6090706;23;20810;-89
2022/03/21 16:01:40;;;;;;;20.50;12.77;;;16.90;54.90;;;;;;6076842;23;20388;-89
2022/03/21 16:04:26;;;;;;;18.43;11.00;;;16.90;55.20;;;;;;6083888;23;20402;-88
2022/03/21 16:16:55;;;;;;;19.40;12.43;;;16.90;55.10;;;;;;6081786;23;20444;-87
2022/03/21 16:20:09;;;;;;;18.20;11.03;;;16.70;54.90;;;;;;6062349;23;20424;-88
2022/03/21 16:23:32;;;;;;;20.00;11.87;;;16.70;55.10;;;;;;6080817;23;20848;-88
2022/03/21 16:26:58;;;;;;;14.90;10.20;;;16.50;54.90;;;;;;6056019;23;20416;-89
2022/03/21 16:29:27;;;;;;;16.50;11.00;;;16.50;54.20;;;;;;6079975;23;20396;-88
2022/03/21 16:31:57;;;;;;;19.67;12.30;;;16.40;54.20;;;;;;6080388;23;20420;-87
2022/03/21 16:34:50;;;;;;;;;;;;;;;;;;;;;
2022/03/21 16:38:05;;;;;;;;;;;;;;;;;;;;;
2022/03/21 16:40:39;;;;;;;15.20;10.93;;;16.50;53.30;;;;;;6079391;23;20369;-88
2022/03/21 16:43:08;;;;;;;18.13;11.73;;;16.40;54.10;;;;;;6079953;23;20398;-89
2022/03/21 16:45:43;;;;;;;17.90;11.47;;;16.30;53.70;;;;;;6078795;23;20457;-88
2022/03/21 16:48:16;;;;;;;23.93;12.37;;;16.30;53.80;;;;;;6079642;23;20406;-88
2022/03/21 16:50:52;;;;;;;15.53;10.87;;;16.20;52.90;;;;;;6078890;23;20413;-89
2022/03/21 16:53:49;;;;;;;19.13;10.60;;;16.30;52.90;;;;;;6086479;23;20441;-88
2022/03/21 16:56:43;;;;;;;;;;;;;;;;;;;;;
2022/03/21 16:59:47;;;;;;;14.30;9.80;;;16.20;53.00;;;;;;6112231;23;20358;-87
2022/03/21 17:02:24;;;;;;;14.00;9.03;;;16.10;52.70;;;;;;6122180;23;20444;-87
2022/03/21 17:04:53;;;;;;;17.80;10.13;;;15.80;53.00;;;;;;6120690;23;20384;-89
2022/03/21 17:07:23;;;;;;;13.90;9.67;;;15.80;53.50;;;;;;6122072;23;20441;-87
2022/03/21 17:09:50;;;;;;;13.00;10.30;;;15.80;53.30;;;;;;6116756;23;20880;-87
2022/03/21 17:12:20;;;;;;;16.70;9.30;;;15.70;53.20;;;;;;6108133;23;20392;-87
2022/03/21 17:24:30;;;;;;;18.47;10.43;;;15.50;53.50;;;;;;6108952;23;20372;-86
2022/03/21 17:27:03;;;;;;;13.53;9.40;;;15.50;53.70;;;;;;6115079;23;20416;-88
2022/03/21 17:29:54;;;;;;;16.97;9.97;;;15.40;53.80;;;;;;6120068;23;20688;-89
2022/03/21 17:32:24;;;;;;;16.43;10.13;;;15.40;54.00;;;;;;6092961;23;20421;-88
2022/03/21 17:35:12;;;;;;;18.03;10.17;;;15.30;54.20;;;;;;6108996;23;20492;-88
2022/03/21 17:37:53;;;;;;;17.77;10.53;;;15.10;54.50;;;;;;6118198;23;20419;-89
2022/03/21 17:40:40;;;;;;;12.40;9.07;;;15.10;54.90;;;;;;6111894;23;20374;-88
2022/03/21 17:43:11;;;;;;;17.37;10.70;;;15.00;55.10;;;;;;6109006;23;20795;-89
2022/03/21 17:46:11;;;;;;;13.50;10.50;;;15.10;55.20;;;;;;6115118;23;20432;-87
2022/03/21 17:48:41;;;;;;;13.90;9.70;;;15.10;55.40;;;;;;6112081;23;20416;-89
2022/03/21 17:51:12;;;;;;;19.77;10.40;;;15.00;55.70;;;;;;6115478;23;20868;-88
2022/03/21 17:53:43;;;;;;;18.57;10.80;;;15.10;55.90;;;;;;6120316;23;20430;-89
2022/03/21 17:56:11;;;;;;;16.87;11.77;;;14.90;56.30;;;;;;6116235;23;20437;-89
2022/03/21 17:58:40;;;;;;;16.17;11.03;;;15.00;56.30;;;;;;6114972;23;20497;-88
2022/03/21 18:01:09;;;;;;;22.40;12.07;;;15.00;56.60;;;;;;6114040;23;20423;-89
2022/03/21 18:03:36;;;;;;;26.27;14.30;;;14.90;57.60;;;;;;6112841;23;20388;-88
2022/03/21 18:06:07;;;;;;;18.00;10.80;;;14.90;58.00;;;;;;6114429;23;20423;-90
2022/03/21 18:08:35;;;;;;;18.13;10.60;;;14.90;58.10;;;;;;6113144;23;20376;-88
2022/03/21 18:11:03;;;;;;;15.80;11.53;;;14.90;58.10;;;;;;6114454;23;20419;-88
2022/03/21 18:13:30;;;;;;;22.60;11.10;;;14.80;58.30;;;;;;6113760;23;20497;-88
2022/03/21 18:15:59;;;;;;;17.90;10.30;;;14.60;58.70;;;;;;6113802;23;20423;-88
2022/03/21 18:18:29;;;;;;;16.53;11.33;;;14.40;59.10;;;;;;6117486;23;20472;-89
2022/03/21 18:20:56;;;;;;;19.30;11.00;;;14.30;59.40;;;;;;6120164;23;20368;-89
2022/03/21 18:23:25;;;;;;;20.67;11.40;;;14.30;59.60;;;;;;6115218;23;20388;-87
2022/03/21 18:25:57;;;;;;;19.57;10.83;;;14.30;59.60;;;;;;6120195;23;20462;-88
2022/03/21 18:28:26;;;;;;;16.20;11.03;;;14.20;59.80;;;;;;6121990;23;20492;-86
2022/03/21 18:31:00;;;;;;;16.90;10.50;;;14.20;61.40;;;;;;6115311;23;20397;-88
2022/03/21 18:33:29;;;;;;;21.00;11.37;;;14.10;61.80;;;;;;6115085;23;20387;-90
2022/03/21 18:35:58;;;;;;;22.27;12.93;;;14.10;62.30;;;;;;6119356;23;20436;-89
2022/03/21 18:38:49;;;;;;;17.40;12.40;;;14.00;63.10;;;;;;6117581;23;20462;-90
2022/03/21 18:41:35;;;;;;;17.93;11.77;;;13.80;63.70;;;;;;6115928;23;20422;-87
2022/03/21 18:44:03;;;;;;;20.83;10.87;;;13.70;64.10;;;;;;6112558;23;20389;-89
2022/03/21 18:46:30;;;;;;;14.63;11.13;;;13.50;64.70;;;;;;6110078;23;20404;-88
2022/03/21 18:48:59;;;;;;;19.07;11.20;;;13.50;65.10;;;;;;6109069;23;20450;-88
2022/03/21 18:51:26;;;;;;;20.03;11.60;;;13.50;65.20;;;;;;6107364;23;20891;-88
2022/03/21 18:53:56;;;;;;;15.10;10.77;;;13.40;65.50;;;;;;6108950;23;20439;-89
2022/03/21 18:56:32;;;;;;;24.97;12.20;;;13.30;65.80;;;;;;6109339;23;20456;-87
2022/03/21 18:59:01;;;;;;;17.63;11.13;;;13.00;66.30;;;;;;6108725;23;20464;-87
2022/03/21 19:01:30;;;;;;;20.43;11.13;;;12.90;67.20;;;;;;6107970;23;20912;-89
2022/03/21 19:03:57;;;;;;;18.10;11.53;;;12.90;67.90;;;;;;6107890;23;20413;-89
2022/03/21 19:06:25;;;;;;;17.40;12.53;;;12.80;67.90;;;;;;6109307;23;20436;-87
2022/03/21 19:08:52;;;;;;;19.10;11.47;;;12.70;69.10;;;;;;6109286;23;20395;-86
2022/03/21 19:11:20;;;;;;;22.10;13.77;;;12.60;70.00;;;;;;6107996;23;20376;-87
2022/03/21 19:13:49;;;;;;;19.87;10.70;;;12.60;69.40;;;;;;6108691;23;20420;-88
2022/03/21 19:16:18;;;;;;;20.03;10.67;;;12.50;69.70;;;;;;6118970;23;20452;-87
2022/03/21 19:18:45;;;;;;;20.20;11.97;;;12.50;69.60;;;;;;6109464;23;20863;-87
2022/03/21 19:21:14;;;;;;;23.13;11.03;;;12.40;69.50;;;;;;6109928;23;20424;-88
2022/03/21 19:23:43;;;;;;;18.73;10.27;;;12.30;70.30;;;;;;6113006;23;20409;-89
2022/03/21 19:26:32;;;;;;;22.20;10.23;;;12.20;71.20;;;;;;6120742;23;20399;-87
2022/03/21 19:29:00;;;;;;;16.97;10.17;;;12.10;72.10;;;;;;6119804;23;20378;-89
2022/03/21 19:31:34;;;;;;;17.10;11.20;;;12.00;72.20;;;;;;6110502;23;20503;-89
2022/03/21 19:34:07;;;;;;;15.23;10.47;;;11.90;72.20;;;;;;6108539;23;20412;-90
2022/03/21 19:36:35;;;;;;;18.43;10.10;;;11.90;72.40;;;;;;6109951;23;20400;-88
2022/03/21 19:39:06;;;;;;;16.53;9.60;;;11.90;72.50;;;;;;6111684;23;20417;-89
2022/03/21 19:41:36;;;;;;;22.30;10.97;;;11.80;72.70;;;;;;6116294;23;20415;-89
2022/03/21 19:44:10;;;;;;;17.50;11.13;;;11.80;72.80;;;;;;6107461;23;20403;-88
2022/03/21 19:46:42;;;;;;;14.53;10.30;;;11.70;72.90;;;;;;6108430;23;20935;-89
2022/03/21 19:49:15;;;;;;;17.80;10.90;;;11.70;73.10;;;;;;6109922;23;20410;-90
2022/03/21 19:51:54;;;;;;;19.03;10.37;;;11.60;72.50;;;;;;6109651;23;20758;-89
2022/03/21 19:54:23;;;;;;;17.53;10.87;;;11.60;72.60;;;;;;6112145;23;20480;-89
2022/03/21 19:56:51;;;;;;;20.13;11.63;;;11.50;73.30;;;;;;6116644;23;20436;-89
2022/03/21 19:59:51;;;;;;;21.10;12.17;;;11.40;74.30;;;;;;6113618;23;20409;-88
2022/03/21 20:02:27;;;;;;;20.37;10.67;;;11.40;75.00;;;;;;6035679;23;20476;-90
2022/03/21 20:05:04;;;;;;;19.30;11.57;;;11.30;75.40;;;;;;6110391;23;20408;-89
2022/03/21 20:07:40;;;;;;;23.63;12.87;;;11.20;75.80;;;;;;6110329;23;20737;-86
2022/03/21 20:10:09;;;;;;;24.37;11.93;;;11.10;76.40;;;;;;6108331;23;20404;-88
2022/03/21 20:12:37;;;;;;;17.27;12.00;;;11.10;76.80;;;;;;6108143;23;20419;-89
2022/03/21 20:15:07;;;;;;;21.13;12.40;;;11.10;76.90;;;;;;6113023;23;20504;-88
2022/03/21 20:17:34;;;;;;;18.90;11.60;;;11.00;77.10;;;;;;6114780;23;20413;-89
2022/03/21 20:20:06;;;;;;;18.47;12.03;;;11.00;77.10;;;;;;6120042;23;20432;-89
2022/03/21 20:22:35;;;;;;;19.10;10.70;;;11.10;76.90;;;;;;6111671;23;20399;-88
2022/03/21 20:25:02;;;;;;;17.40;11.10;;;11.00;76.80;;;;;;6110726;23;20428;-87
2022/03/21 20:27:29;;;;;;;18.63;11.87;;;11.00;76.10;;;;;;6108180;23;20439;-88
2022/03/21 20:29:56;;;;;;;17.20;10.83;;;10.90;76.70;;;;;;6107665;23;20902;-88
2022/03/21 20:32:29;;;;;;;21.20;10.80;;;10.80;76.50;;;;;;6117683;23;20401;-87
2022/03/21 20:34:57;;;;;;;16.20;10.33;;;10.80;76.60;;;;;;6114867;23;20460;-88
2022/03/21 20:37:33;;;;;;;17.27;11.07;;;10.60;76.60;;;;;;6110374;23;20452;-88
2022/03/21 20:40:04;;;;;;;14.23;10.40;;;10.60;76.80;;;;;;6111733;23;20389;-88
2022/03/21 20:42:34;;;;;;;20.43;10.13;;;10.60;76.80;;;;;;6110375;23;20383;-90
2022/03/21 20:45:00;;;;;;;19.67;12.10;;;10.50;76.60;;;;;;6113414;23;20998;-90
2022/03/21 20:47:29;;;;;;;17.00;11.50;;;10.40;76.90;;;;;;6123587;23;20448;-88
2022/03/21 20:49:57;;;;;;;19.50;11.50;;;10.40;77.10;;;;;;6121175;23;20398;-88
2022/03/21 20:52:25;;;;;;;18.80;10.80;;;10.40;76.90;;;;;;6118953;23;20481;-85
2022/03/21 20:54:52;;;;;;;15.23;10.93;;;10.30;76.70;;;;;;6123598;23;20448;-86
2022/03/21 20:57:20;;;;;;;14.63;10.70;;;10.30;76.50;;;;;;6117115;23;20348;-88
2022/03/21 20:59:48;;;;;;;14.90;10.97;;;10.20;77.20;;;;;;6113987;23;20413;-88
2022/03/21 21:02:17;;;;;;;15.90;10.57;;;10.20;77.20;;;;;;6115663;23;20484;-89
2022/03/21 21:04:47;;;;;;;16.80;10.90;;;10.10;76.90;;;;;;6114109;23;20395;-87
2022/03/21 21:07:14;;;;;;;17.03;10.80;;;10.10;76.20;;;;;;6113985;23;20461;-88
2022/03/21 21:09:41;;;;;;;17.43;11.37;;;10.00;76.20;;;;;;6107233;23;20420;-88
2022/03/21 21:12:09;;;;;;;16.23;10.90;;;10.10;76.20;;;;;;6106745;23;20402;-88
2022/03/21 21:14:36;;;;;;;16.83;10.90;;;9.90;77.10;;;;;;6106360;23;20412;-87
2022/03/21 21:17:03;;;;;;;16.00;11.30;;;9.90;77.30;;;;;;6106761;23;20787;-87
2022/03/21 21:19:30;;;;;;;16.00;11.30;;;9.70;77.20;;;;;;6105093;23;20395;-89
2022/03/21 21:21:59;;;;;;;16.33;11.10;;;9.70;79.30;;;;;;6105557;23;20382;-88
2022/03/21 21:24:25;;;;;;;17.40;11.40;;;9.60;78.10;;;;;;6115071;23;20417;-87
2022/03/21 21:26:52;;;;;;;15.30;11.10;;;9.60;78.50;;;;;;6116961;23;20429;-89
2022/03/21 21:29:19;;;;;;;16.53;11.23;;;9.50;77.80;;;;;;6107800;23;20443;-89
2022/03/21 21:31:48;;;;;;;16.03;11.03;;;9.50;77.90;;;;;;6105743;23;20409;-89
2022/03/21 21:34:16;;;;;;;17.07;11.20;;;9.50;78.10;;;;;;6106857;23;20424;-88
2022/03/21 21:36:43;;;;;;;16.77;9.80;;;9.30;78.10;;;;;;6110503;23;20504;-87
2022/03/21 21:39:11;;;;;;;17.77;11.88;;;9.20;78.20;;;;;;6108644;23;20408;-89
2022/03/21 21:41:38;;;;;;;14.73;11.23;;;9.20;78.40;;;;;;6111396;23;20177;-89
2022/03/21 21:44:06;;;;;;;13.60;10.00;;;9.10;78.30;;;;;;6109402;23;20417;-88